KASH/ASH METAR and TAF weather

Enter ICAO airport designator
Station Type Date Time Source
KASH METAR 2018/07/16 23:56 UTC NOAA

KASH 162356Z 13006KT 10SM SCT040 27/23 A2991 RMK AO2 LTG DSNT S SLP137 60010 T02720233 10322 20256 58004


Station Type Date Time Source
KASH Decoded METAR 2018/07/16 23:56 UTC NOAA

Nashua, Boire Field Airport, NH, United States (KASH) 42-46-54N 071-30-53W
Jul 16, 2018 - 07:56 PM EDT / 2018.07.16 2356 UTC
Wind: from the SE (130 degrees) at 7 MPH (6 KT):0
Visibility: 10 mile(s):0
Sky conditions: partly cloudy
Weather: Lightning observed
Temperature: 81.0 F (27.2 C)
Dew Point: 73.9 F (23.3 C)
Relative Humidity: 79%
Pressure (altimeter): 29.91 in. Hg (1012 hPa)
Pressure tendency: 0.01 inches (0.4 hPa) lower than three hours ago
ob: KASH 162356Z 13006KT 10SM SCT040 27/23 A2991 RMK AO2 LTG DSNT S SLP137 60010 T02720233 10322 20256 58004
cycle: 0

Station Type Date Time Source
KASH TAF UTC NOAA

Error!


Example: see airport list